createdAt,value
2018-04-18T00:00:09.364Z,55.63
2018-04-18T00:02:37.799Z,55.58
2018-04-18T00:05:08.351Z,55.75
2018-04-18T00:07:36.819Z,56.00
2018-04-18T00:10:05.250Z,56.19
2018-04-18T00:12:33.724Z,56.20
2018-04-18T00:15:02.151Z,56.22
2018-04-18T00:17:30.568Z,55.85
2018-04-18T00:19:58.976Z,56.10
2018-04-18T00:22:27.569Z,56.20
2018-04-18T00:24:55.963Z,56.66
2018-04-18T00:27:26.464Z,56.44
2018-04-18T00:29:57.044Z,56.21
2018-04-18T00:32:27.575Z,56.51
2018-04-18T00:34:56.034Z,56.59
2018-04-18T00:37:28.282Z,56.29
2018-04-18T00:39:56.680Z,56.38
2018-04-18T00:42:25.079Z,56.46
2018-04-18T00:44:53.503Z,57.13
2018-04-18T00:47:21.904Z,56.97
2018-04-18T00:49:52.140Z,57.51
2018-04-18T00:52:20.575Z,57.31
2018-04-18T00:54:50.963Z,56.65
2018-04-18T00:57:21.518Z,56.97
2018-04-18T00:59:49.935Z,56.52
2018-04-18T01:02:20.154Z,57.23
2018-04-18T01:04:48.559Z,57.14
2018-04-18T01:07:19.167Z,57.06
2018-04-18T01:09:49.684Z,57.78
2018-04-18T01:12:18.218Z,58.16
2018-04-18T01:14:46.681Z,58.25
2018-04-18T01:17:15.106Z,58.48
2018-04-18T01:19:45.459Z,58.81
2018-04-18T01:22:13.895Z,59.03
2018-04-18T01:24:42.314Z,59.30
2018-04-18T01:27:10.692Z,59.66
2018-04-18T01:29:43.310Z,59.97
2018-04-18T01:32:13.911Z,59.45
2018-04-18T01:34:44.402Z,60.00
2018-04-18T01:37:12.830Z,60.45
2018-04-18T01:39:43.428Z,59.87
2018-04-18T01:42:13.947Z,59.84
2018-04-18T01:44:44.479Z,59.49
2018-04-18T01:47:14.997Z,59.40
2018-04-18T01:49:45.270Z,60.03
2018-04-18T01:52:15.747Z,60.25
2018-04-18T01:54:44.159Z,60.47
2018-04-18T01:57:12.699Z,60.05
2018-04-18T01:59:41.115Z,60.38
2018-04-18T02:02:09.511Z,59.55
2018-04-18T02:04:38.011Z,59.17
2018-04-18T02:07:08.558Z,59.85
2018-04-18T02:09:39.138Z,59.96
2018-04-18T02:12:11.664Z,60.44
2018-04-18T02:14:42.288Z,60.53
2018-04-18T02:17:12.803Z,61.41
2018-04-18T02:19:43.364Z,61.35
2018-04-18T02:22:13.968Z,61.28
2018-04-18T02:24:42.514Z,61.51
2018-04-18T02:27:13.051Z,61.42
2018-04-18T02:29:43.668Z,62.07
2018-04-18T02:32:12.164Z,62.04
2018-04-18T02:34:42.620Z,61.02
2018-04-18T02:37:11.099Z,61.02
2018-04-18T02:39:39.517Z,61.07
2018-04-18T02:42:07.967Z,61.08
2018-04-18T02:44:36.466Z,60.99
2018-04-18T02:47:04.902Z,60.88
2018-04-18T02:49:33.368Z,61.40
2018-04-18T02:52:01.843Z,61.41
2018-04-18T02:54:30.305Z,61.20
2018-04-18T02:57:00.899Z,61.01
2018-04-18T02:59:31.407Z,60.85
2018-04-18T03:01:59.866Z,61.17
2018-04-18T03:04:30.399Z,61.41
2018-04-18T03:07:00.855Z,61.84
2018-04-18T03:09:29.258Z,62.03
2018-04-18T03:11:57.696Z,61.49
2018-04-18T03:14:26.186Z,61.80
2018-04-18T03:16:54.591Z,61.76
2018-04-18T03:19:22.982Z,61.91
2018-04-18T03:21:51.432Z,62.11
2018-04-18T03:24:19.983Z,62.76
2018-04-18T03:26:48.394Z,62.76
2018-04-18T03:29:18.911Z,62.86
2018-04-18T03:31:49.113Z,62.73
2018-04-18T03:34:17.515Z,62.59
2018-04-18T03:36:45.945Z,63.34
2018-04-18T03:39:14.356Z,64.13
2018-04-18T03:41:42.755Z,64.10
2018-04-18T03:44:11.187Z,64.59
2018-04-18T03:46:41.479Z,65.04
2018-04-18T03:49:09.882Z,64.58
2018-04-18T03:51:38.335Z,64.54
2018-04-18T03:54:06.779Z,64.53
2018-04-18T03:56:37.364Z,64.62
2018-04-18T03:59:05.731Z,64.93
2018-04-18T04:01:34.159Z,64.90
2018-04-18T04:04:02.580Z,64.97
2018-04-18T04:06:33.212Z,65.26
2018-04-18T04:09:01.750Z,65.40
2018-04-18T04:11:30.200Z,65.81
2018-04-18T04:14:00.631Z,65.35
2018-04-18T04:16:36.946Z,65.50
2018-04-18T04:19:11.556Z,65.38
2018-04-18T04:21:48.106Z,65.68
2018-04-18T04:24:22.644Z,65.85
2018-04-18T04:26:51.120Z,65.88
2018-04-18T04:29:19.524Z,66.12
2018-04-18T04:31:50.151Z,66.22
2018-04-18T04:34:18.648Z,66.39
2018-04-18T04:36:47.137Z,66.85
2018-04-18T04:39:18.491Z,66.70
2018-04-18T04:41:46.920Z,66.49
2018-04-18T04:44:17.483Z,66.40
2018-04-18T04:46:45.905Z,65.96
2018-04-18T04:49:16.101Z,66.28
2018-04-18T04:51:46.603Z,66.28
2018-04-18T04:54:15.031Z,66.84
2018-04-18T04:56:43.429Z,66.31
2018-04-18T04:59:13.994Z,66.43
2018-04-18T05:01:44.567Z,66.14
2018-04-18T05:04:13.035Z,65.29
2018-04-18T05:06:43.855Z,64.21
2018-04-18T05:09:12.265Z,63.88
2018-04-18T05:11:40.679Z,63.77
2018-04-18T05:14:09.169Z,62.34
2018-04-18T05:16:37.575Z,61.52
2018-04-18T05:19:05.990Z,60.53
2018-04-18T05:21:34.455Z,58.89
2018-04-18T05:24:06.549Z,58.96
2018-04-18T05:26:34.977Z,58.75
2018-04-18T05:29:05.479Z,58.51
2018-04-18T05:31:33.891Z,58.32
2018-04-18T05:34:04.260Z,57.56
2018-04-18T05:36:34.829Z,57.35
2018-04-18T05:39:06.824Z,56.61
2018-04-18T05:41:35.275Z,55.95
2018-04-18T05:44:03.713Z,55.33
2018-04-18T05:46:32.119Z,54.92
2018-04-18T05:49:00.696Z,53.93
2018-04-18T05:51:30.551Z,52.99
2018-04-18T05:53:58.954Z,52.42
2018-04-18T05:56:27.427Z,51.07
2018-04-18T05:58:57.231Z,50.66
2018-04-18T06:01:25.777Z,49.65
2018-04-18T06:03:56.179Z,49.17
2018-04-18T06:06:26.276Z,48.60
2018-04-18T06:08:54.784Z,48.49
2018-04-18T06:11:23.190Z,47.96
2018-04-18T06:13:53.611Z,47.50
2018-04-18T06:16:22.098Z,48.15
2018-04-18T06:18:52.031Z,47.85
2018-04-18T06:21:20.549Z,47.61
2018-04-18T06:23:50.519Z,47.18
2018-04-18T06:26:18.917Z,47.03
2018-04-18T06:28:47.553Z,46.22
2018-04-18T06:31:15.988Z,46.84
2018-04-18T06:33:44.412Z,46.90
2018-04-18T06:36:15.984Z,46.45
2018-04-18T06:38:44.394Z,45.88
2018-04-18T06:41:12.878Z,45.16
2018-04-18T06:43:42.527Z,44.94
2018-04-18T06:46:12.427Z,44.81
2018-04-18T06:48:40.872Z,44.59
2018-04-18T06:51:10.987Z,44.36
2018-04-18T06:53:39.414Z,43.98
2018-04-18T06:56:09.367Z,42.82
2018-04-18T06:58:37.969Z,42.88
2018-04-18T07:01:06.401Z,40.79
2018-04-18T07:03:35.753Z,39.48
2018-04-18T07:06:04.219Z,38.85
2018-04-18T07:08:32.660Z,37.98
2018-04-18T07:11:01.136Z,36.86
2018-04-18T07:13:29.557Z,34.93
2018-04-18T07:15:58.759Z,34.67
2018-04-18T07:18:28.689Z,33.79
2018-04-18T07:20:58.536Z,33.09
2018-04-18T07:23:26.972Z,31.75
2018-04-18T07:25:55.492Z,31.31
2018-04-18T07:28:23.899Z,30.64
2018-04-18T07:30:52.544Z,29.29
2018-04-18T07:33:20.988Z,28.87
2018-04-18T07:35:49.564Z,28.11
2018-04-18T07:38:18.016Z,27.65
2018-04-18T07:40:46.409Z,26.94
2018-04-18T07:43:14.803Z,27.13
2018-04-18T07:45:43.561Z,26.41
2018-04-18T07:48:11.954Z,25.83
2018-04-18T07:50:40.299Z,25.72
2018-04-18T07:53:08.760Z,24.00
2018-04-18T07:55:38.597Z,24.30
2018-04-18T07:58:07.088Z,29.81
2018-04-18T08:00:35.563Z,26.37
2018-04-18T08:03:03.955Z,25.55
2018-04-18T08:05:32.379Z,25.08
2018-04-18T08:08:02.780Z,24.36
2018-04-18T08:10:32.267Z,23.24
2018-04-18T08:13:00.804Z,24.38
2018-04-18T08:15:29.308Z,25.42
2018-04-18T08:17:58.927Z,24.21
2018-04-18T08:20:27.351Z,25.33
2018-04-18T08:22:55.843Z,24.12
2018-04-18T08:25:24.293Z,23.37
2018-04-18T08:27:55.795Z,23.67
2018-04-18T08:30:25.464Z,23.42
2018-04-18T08:32:56.303Z,22.66
2018-04-18T08:35:24.736Z,22.44
2018-04-18T08:37:53.179Z,23.12
2018-04-18T08:40:21.614Z,22.21
2018-04-18T08:42:51.519Z,22.55
2018-04-18T08:45:21.453Z,22.98
2018-04-18T08:47:49.846Z,24.14
2018-04-18T08:50:18.274Z,23.96
2018-04-18T08:52:46.768Z,24.95
2018-04-18T08:55:16.738Z,24.16
2018-04-18T08:57:45.163Z,23.96
2018-04-18T09:00:13.606Z,22.84
2018-04-18T09:02:44.376Z,23.27
2018-04-18T09:05:12.785Z,24.30
2018-04-18T09:07:41.174Z,23.78
2018-04-18T09:10:09.619Z,22.64
2018-04-18T09:12:37.995Z,21.16
2018-04-18T09:15:07.970Z,20.13
2018-04-18T09:17:36.376Z,19.73
2018-04-18T09:20:06.235Z,21.82
2018-04-18T09:22:37.952Z,20.46
2018-04-18T09:25:06.388Z,22.12
2018-04-18T09:27:34.808Z,21.17
2018-04-18T09:30:04.006Z,20.11
2018-04-18T09:32:32.435Z,21.03
2018-04-18T09:35:00.867Z,19.77
2018-04-18T09:37:29.355Z,19.68
2018-04-18T09:39:57.780Z,19.44
2018-04-18T09:42:26.287Z,18.22
2018-04-18T09:44:54.708Z,19.86
2018-04-18T09:47:23.111Z,18.75
2018-04-18T09:49:52.540Z,19.52
2018-04-18T09:52:20.944Z,18.95
2018-04-18T09:54:50.073Z,19.53
2018-04-18T09:57:18.471Z,19.87
2018-04-18T09:59:49.591Z,19.06
2018-04-18T10:02:25.483Z,20.59
2018-04-18T10:04:53.923Z,20.66
2018-04-18T10:07:22.338Z,19.81
2018-04-18T10:09:50.758Z,20.37
2018-04-18T10:12:19.233Z,20.10
2018-04-18T10:14:47.651Z,19.45
2018-04-18T10:17:16.091Z,19.24
2018-04-18T10:19:44.558Z,19.29
2018-04-18T10:22:13.938Z,19.16
2018-04-18T10:24:43.385Z,18.22
2018-04-18T10:27:12.875Z,17.58
2018-04-18T10:29:42.295Z,17.04
2018-04-18T10:32:10.700Z,16.27
2018-04-18T10:34:39.132Z,15.63
2018-04-18T10:37:08.603Z,16.07
2018-04-18T10:39:38.080Z,16.20
2018-04-18T10:42:07.547Z,14.91
2018-04-18T10:44:35.883Z,15.84
2018-04-18T10:47:04.299Z,15.57
2018-04-18T10:49:32.691Z,15.42
2018-04-18T10:52:01.191Z,14.97
2018-04-18T10:54:29.631Z,16.33
2018-04-18T10:56:58.066Z,17.14
2018-04-18T10:59:26.455Z,16.74
2018-04-18T11:01:55.200Z,16.69
2018-04-18T11:04:23.587Z,16.24
2018-04-18T11:06:52.020Z,18.18
2018-04-18T11:09:21.463Z,18.49
2018-04-18T11:11:49.838Z,17.72
2018-04-18T11:14:18.267Z,17.55
2018-04-18T11:16:47.811Z,18.36
2018-04-18T11:19:16.242Z,18.02
2018-04-18T11:21:44.807Z,18.93
2018-04-18T11:24:13.245Z,19.67
2018-04-18T11:26:41.707Z,19.63
2018-04-18T11:29:11.115Z,19.84
2018-04-18T11:31:39.512Z,18.81
2018-04-18T11:34:07.994Z,19.66
2018-04-18T11:36:36.397Z,18.71
2018-04-18T11:39:04.784Z,17.43
2018-04-18T11:41:33.220Z,19.13
2018-04-18T11:44:01.643Z,18.94
2018-04-18T11:46:30.083Z,19.09
2018-04-18T11:48:58.558Z,18.75
2018-04-18T11:51:27.911Z,19.72
2018-04-18T11:53:56.376Z,19.55
2018-04-18T11:56:24.801Z,19.94
2018-04-18T11:58:53.285Z,20.30
2018-04-18T12:01:21.722Z,20.25
2018-04-18T12:03:50.502Z,20.65
2018-04-18T12:06:18.903Z,21.33
2018-04-18T12:08:47.339Z,20.86
2018-04-18T12:11:15.736Z,20.87
2018-04-18T12:13:44.930Z,20.82
2018-04-18T12:16:13.383Z,21.17
2018-04-18T12:18:41.814Z,20.96
2018-04-18T12:21:10.528Z,22.18
2018-04-18T12:23:39.898Z,21.97
2018-04-18T12:26:09.264Z,22.12
2018-04-18T12:28:37.738Z,22.06
2018-04-18T12:31:06.244Z,19.35
2018-04-18T12:33:34.675Z,20.58
2018-04-18T12:36:03.067Z,21.46
2018-04-18T12:38:31.520Z,22.63
2018-04-18T12:40:59.991Z,22.88
2018-04-18T12:43:28.430Z,22.48
2018-04-18T12:45:56.895Z,22.60
2018-04-18T12:48:25.286Z,22.10
2018-04-18T12:50:53.803Z,22.54
2018-04-18T12:53:22.172Z,22.20
2018-04-18T12:55:50.608Z,23.24
2018-04-18T12:58:19.011Z,21.69
2018-04-18T13:00:47.380Z,21.41
2018-04-18T13:03:15.824Z,22.46
2018-04-18T13:05:44.309Z,22.77
2018-04-18T13:08:13.687Z,22.04
2018-04-18T13:10:42.220Z,21.21
2018-04-18T13:13:10.609Z,21.38
2018-04-18T13:15:39.036Z,22.30
2018-04-18T13:18:07.505Z,22.16
2018-04-18T13:20:36.926Z,22.45
2018-04-18T13:23:06.259Z,22.51
2018-04-18T13:25:34.653Z,22.57
2018-04-18T13:28:03.211Z,22.74
2018-04-18T13:30:31.656Z,23.22
2018-04-18T13:33:01.404Z,23.54
2018-04-18T13:35:29.914Z,23.09
2018-04-18T13:37:59.432Z,23.82
2018-04-18T13:40:28.847Z,23.17
2018-04-18T13:42:57.312Z,23.19
2018-04-18T13:45:25.774Z,22.56
2018-04-18T13:47:55.168Z,23.07
2018-04-18T13:50:23.793Z,23.56
2018-04-18T13:52:53.208Z,23.80
2018-04-18T13:55:21.603Z,23.14
2018-04-18T13:57:50.053Z,22.56
2018-04-18T14:00:19.592Z,22.04
2018-04-18T14:02:48.028Z,22.78
2018-04-18T14:05:16.463Z,22.02
2018-04-18T14:07:45.035Z,22.41
2018-04-18T14:10:16.155Z,22.57
2018-04-18T14:12:44.579Z,21.30
2018-04-18T14:15:12.993Z,21.07
2018-04-18T14:17:42.862Z,21.34
2018-04-18T14:20:11.231Z,22.01
2018-04-18T14:22:40.531Z,21.82
2018-04-18T14:25:10.478Z,21.86
2018-04-18T14:27:38.955Z,21.24
2018-04-18T14:30:08.344Z,22.55
2018-04-18T14:32:38.343Z,22.03
2018-04-18T14:35:06.813Z,23.02
2018-04-18T14:37:36.264Z,23.32
2018-04-18T14:40:04.724Z,22.75
2018-04-18T14:42:33.171Z,23.50
2018-04-18T14:45:01.681Z,23.49
2018-04-18T14:47:31.127Z,21.95
2018-04-18T14:50:00.574Z,22.65
2018-04-18T14:52:30.352Z,21.87
2018-04-18T14:54:58.772Z,22.06
2018-04-18T14:57:27.220Z,21.67
2018-04-18T14:59:55.636Z,22.22
2018-04-18T15:02:24.079Z,19.73
2018-04-18T15:04:53.519Z,21.51
2018-04-18T15:07:23.368Z,20.96
2018-04-18T15:09:51.791Z,21.96
2018-04-18T15:12:20.245Z,22.46
2018-04-18T15:14:48.693Z,22.42
2018-04-18T15:17:18.192Z,23.09
2018-04-18T15:19:46.601Z,22.83
2018-04-18T15:22:15.058Z,22.59
2018-04-18T15:24:43.455Z,23.12
2018-04-18T15:27:12.903Z,22.83
2018-04-18T15:29:42.456Z,22.49
2018-04-18T15:32:11.918Z,22.02
2018-04-18T15:34:41.447Z,21.92
2018-04-18T15:37:09.844Z,21.45
2018-04-18T15:39:40.372Z,20.66
2018-04-18T15:42:08.783Z,20.78
2018-04-18T15:44:37.300Z,21.19
2018-04-18T15:47:05.683Z,21.12
2018-04-18T15:49:34.139Z,21.21
2018-04-18T15:52:02.595Z,20.34
2018-04-18T15:54:31.068Z,18.62
2018-04-18T15:57:03.440Z,18.21
2018-04-18T15:59:31.883Z,18.70
2018-04-18T16:02:01.616Z,19.68
2018-04-18T16:04:30.051Z,20.17
2018-04-18T16:06:58.479Z,20.62
2018-04-18T16:09:26.887Z,20.90
2018-04-18T16:11:55.312Z,21.47
2018-04-18T16:14:25.231Z,21.69
2018-04-18T16:16:53.647Z,21.49
2018-04-18T16:19:22.093Z,21.88
2018-04-18T16:21:52.139Z,20.90
2018-04-18T16:24:22.571Z,21.04
2018-04-18T16:26:51.063Z,20.82
2018-04-18T16:29:25.668Z,20.07
2018-04-18T16:31:54.306Z,20.99
2018-04-18T16:34:23.737Z,21.24
2018-04-18T16:36:53.671Z,21.47
2018-04-18T16:39:22.096Z,21.61
2018-04-18T16:41:51.767Z,21.68
2018-04-18T16:44:22.679Z,22.14
2018-04-18T16:46:51.091Z,22.09
2018-04-18T16:49:19.539Z,22.44
2018-04-18T16:51:47.961Z,22.50
2018-04-18T16:54:16.396Z,22.29
2018-04-18T16:56:46.247Z,21.96
2018-04-18T16:59:14.719Z,22.07
2018-04-18T17:01:43.366Z,21.88
2018-04-18T17:04:12.972Z,22.08
2018-04-18T17:06:43.007Z,21.33
2018-04-18T17:09:11.450Z,21.71
2018-04-18T17:11:39.874Z,21.19
2018-04-18T17:14:08.340Z,21.14
2018-04-18T17:16:36.798Z,21.84
2018-04-18T17:19:05.231Z,22.25
2018-04-18T17:21:35.156Z,21.94
2018-04-18T17:24:03.654Z,22.36
2018-04-18T17:26:36.889Z,22.63
2018-04-18T17:29:08.975Z,22.58
2018-04-18T17:31:39.445Z,22.39
2018-04-18T17:34:09.552Z,22.96
2018-04-18T17:36:43.299Z,22.98
2018-04-18T17:39:11.723Z,23.10
2018-04-18T17:41:40.134Z,23.14
2018-04-18T17:44:10.561Z,22.88
2018-04-18T17:46:39.318Z,22.97
2018-04-18T17:49:09.766Z,22.89
2018-04-18T17:51:38.169Z,23.92
2018-04-18T17:54:08.155Z,23.54
2018-04-18T17:56:38.724Z,24.03
2018-04-18T17:59:09.483Z,23.99
2018-04-18T18:01:37.932Z,23.41
2018-04-18T18:04:06.364Z,23.38
2018-04-18T18:06:34.824Z,23.64
2018-04-18T18:09:03.278Z,24.59
2018-04-18T18:11:31.774Z,24.07
2018-04-18T18:14:00.182Z,23.72
2018-04-18T18:16:28.631Z,24.17
2018-04-18T18:18:57.107Z,24.20
2018-04-18T18:21:25.532Z,24.12
2018-04-18T18:23:54.004Z,23.89
2018-04-18T18:26:22.424Z,24.47
2018-04-18T18:28:52.643Z,24.33
2018-04-18T18:31:23.186Z,24.61
2018-04-18T18:33:51.677Z,24.78
2018-04-18T18:36:20.182Z,25.27
2018-04-18T18:38:50.771Z,25.39
2018-04-18T18:41:21.343Z,25.62
2018-04-18T18:43:51.871Z,25.73
2018-04-18T18:46:22.024Z,26.05
2018-04-18T18:48:54.614Z,26.10
2018-04-18T18:51:23.065Z,26.40
2018-04-18T18:53:51.608Z,26.65
2018-04-18T18:56:22.111Z,27.13
2018-04-18T18:58:52.636Z,27.13
2018-04-18T19:01:23.228Z,27.39
2018-04-18T19:03:53.793Z,27.97
2018-04-18T19:06:22.214Z,28.06
2018-04-18T19:08:50.648Z,28.23
2018-04-18T19:11:19.119Z,28.68
2018-04-18T19:13:49.401Z,28.80
2018-04-18T19:16:17.855Z,28.91
2018-04-18T19:18:51.961Z,29.84
2018-04-18T19:21:20.463Z,29.88
2018-04-18T19:23:48.886Z,30.00
2018-04-18T19:26:17.309Z,30.17
2018-04-18T19:28:48.048Z,30.57
2018-04-18T19:31:16.525Z,30.83
2018-04-18T19:33:45.019Z,30.70
2018-04-18T19:36:13.471Z,31.04
2018-04-18T19:38:42.019Z,31.14
2018-04-18T19:41:12.590Z,31.13
2018-04-18T19:43:41.067Z,31.76
2018-04-18T19:46:11.680Z,31.42
2018-04-18T19:48:40.098Z,31.65
2018-04-18T19:51:12.943Z,31.19
2018-04-18T19:53:41.380Z,31.30
2018-04-18T19:56:09.844Z,31.10
2018-04-18T19:58:38.281Z,31.29
2018-04-18T20:01:06.695Z,31.04
2018-04-18T20:03:35.150Z,31.77
2018-04-18T20:06:03.594Z,32.27
2018-04-18T20:08:34.336Z,32.04
2018-04-18T20:11:05.002Z,31.27
2018-04-18T20:13:33.447Z,31.43
2018-04-18T20:16:01.932Z,31.26
2018-04-18T20:18:32.642Z,31.29
2018-04-18T20:21:03.131Z,31.21
2018-04-18T20:23:31.590Z,31.66
2018-04-18T20:26:00.028Z,31.82
2018-04-18T20:28:28.503Z,32.06
2018-04-18T20:30:57.119Z,31.91
2018-04-18T20:33:27.674Z,32.53
2018-04-18T20:35:59.888Z,32.16
2018-04-18T20:38:30.356Z,31.77
2018-04-18T20:41:00.919Z,31.51
2018-04-18T20:43:29.334Z,31.72
2018-04-18T20:45:59.791Z,31.46
2018-04-18T20:48:30.231Z,31.59
2018-04-18T20:50:58.656Z,31.43
2018-04-18T20:53:27.292Z,31.81
2018-04-18T20:55:55.661Z,31.48
2018-04-18T20:58:24.079Z,31.61
2018-04-18T21:00:52.528Z,31.76
2018-04-18T21:03:20.973Z,31.37
2018-04-18T21:05:49.456Z,31.69
2018-04-18T21:08:17.879Z,31.43
2018-04-18T21:10:46.323Z,31.17
2018-04-18T21:13:14.749Z,31.57
2018-04-18T21:15:43.137Z,31.28
2018-04-18T21:18:11.546Z,31.22
2018-04-18T21:20:40.014Z,31.20
2018-04-18T21:23:08.458Z,31.58
2018-04-18T21:25:36.992Z,31.63
2018-04-18T21:28:05.364Z,31.64
2018-04-18T21:30:33.775Z,31.61
2018-04-18T21:33:02.208Z,31.88
2018-04-18T21:35:30.661Z,31.97
2018-04-18T21:37:59.096Z,32.58
2018-04-18T21:40:27.525Z,32.43
2018-04-18T21:42:55.991Z,32.42
2018-04-18T21:45:24.424Z,32.33
2018-04-18T21:47:52.846Z,32.55
2018-04-18T21:50:21.271Z,32.46
2018-04-18T21:52:51.814Z,32.51
2018-04-18T21:55:22.415Z,32.64
2018-04-18T21:57:50.857Z,32.68
2018-04-18T22:00:19.300Z,32.75
2018-04-18T22:02:47.747Z,32.76
2018-04-18T22:05:16.159Z,32.81
2018-04-18T22:07:44.606Z,32.49
2018-04-18T22:10:13.044Z,33.02
2018-04-18T22:12:41.525Z,32.58
2018-04-18T22:15:11.976Z,32.65
2018-04-18T22:17:40.483Z,32.13
2018-04-18T22:20:08.879Z,32.54
2018-04-18T22:22:37.279Z,32.00
2018-04-18T22:25:05.730Z,31.94
2018-04-18T22:27:34.191Z,32.41
2018-04-18T22:30:02.612Z,32.41
2018-04-18T22:32:30.966Z,32.03
2018-04-18T22:35:00.304Z,32.07
2018-04-18T22:37:29.247Z,32.30
2018-04-18T22:40:01.793Z,32.85
2018-04-18T22:42:30.157Z,32.20
2018-04-18T22:44:58.627Z,32.10
2018-04-18T22:47:27.035Z,32.27
2018-04-18T22:49:55.472Z,32.40
2018-04-18T22:52:23.880Z,32.83
2018-04-18T22:54:52.316Z,32.58
2018-04-18T22:57:20.784Z,32.58
2018-04-18T22:59:49.167Z,32.51
2018-04-18T23:02:19.823Z,32.63
2018-04-18T23:04:48.296Z,32.64
2018-04-18T23:07:16.728Z,32.74
2018-04-18T23:09:45.169Z,32.75
2018-04-18T23:12:13.597Z,32.98
2018-04-18T23:14:44.115Z,32.92
2018-04-18T23:17:12.551Z,32.84
2018-04-18T23:19:40.979Z,33.12
2018-04-18T23:22:09.483Z,33.18
2018-04-18T23:24:37.944Z,33.32
2018-04-18T23:27:06.371Z,33.22
2018-04-18T23:29:34.855Z,33.64
2018-04-18T23:32:05.291Z,33.58
2018-04-18T23:34:33.715Z,33.52
2018-04-18T23:37:02.119Z,33.09
2018-04-18T23:39:30.579Z,32.97
2018-04-18T23:41:59.051Z,32.82
2018-04-18T23:44:27.499Z,32.37
2018-04-18T23:46:55.983Z,31.66
2018-04-18T23:49:26.499Z,31.43
2018-04-18T23:51:57.208Z,31.30
2018-04-18T23:54:27.697Z,31.40
2018-04-18T23:56:56.144Z,31.19
2018-04-18T23:59:24.574Z,31.10
